Terminal Aerodrome Forecast
Issued by NWS

Home | Current Version | Previous Version | Text Only | Print | Product List | Glossary On
Versions: 1 2 3 4 5 6 7 8 9 10 11 12 13 14 15
000
FTUS44 KCRP 040529
TAFLRD
TAF
KLRD 040529Z 0406/0506 14010KT P6SM SCT250
     FM041000 15009KT P6SM SCT015 BKN025
      TEMPO 0411/0413 BKN015
     FM041600 16015KT P6SM BKN040
     FM041900 13015G20KT P6SM SCT060
     FM050400 14012KT P6SM FEW030=

USA.gov is the U.S. government's official web portal to all federal, state and local government web resources and services.